Barrett, North Carolina
Current Conditions -  °F | °C
As of 5:35 PM on Wednesday 22 Oct 2014 (Local Time) from KHLX Reporting Station
Overcast Overcast  
Wind Chill: 37°   Ceiling: 2200
Heat Index: 45°   Visibility: 10mi
Dew Point: 38°   Wind: 21mph
Humidity: 77%   Direction: 340°NNW
Pressure: 30.1"   Gusts: 29mph
Location:  36.5243°N, 80.9743°W
Report Text: KHLX 222135Z AUTO 34018G25KT 10SM BKN022 OVC030 07/04 A3010 RMK AO2 T00730035
Loading
Personal Weather Stations






























Interactive Weather Map
Tropical Storm Tracking
New forecast layout! Learn more

10-Day Weather Forecast

Advertisements
Track Severe Weather on mobile